createdAt,value
2023-01-31T00:00:23.978Z,0
2023-01-31T00:02:07.602Z,0
2023-01-31T00:03:51.384Z,0
2023-01-31T00:05:35.041Z,0
2023-01-31T00:07:18.572Z,0
2023-01-31T00:09:02.291Z,0
2023-01-31T00:10:45.991Z,0
2023-01-31T00:12:29.700Z,0
2023-01-31T00:14:13.380Z,1
2023-01-31T00:15:57.112Z,0
2023-01-31T00:17:40.805Z,1
2023-01-31T00:19:24.598Z,0
2023-01-31T00:21:08.370Z,0
2023-01-31T00:22:51.902Z,0
2023-01-31T00:24:35.594Z,0
2023-01-31T00:26:19.372Z,1
2023-01-31T00:28:03.052Z,1
2023-01-31T00:29:46.706Z,0
2023-01-31T00:31:30.414Z,1
2023-01-31T00:33:14.112Z,0
2023-01-31T00:34:57.939Z,0
2023-01-31T00:36:41.729Z,0
2023-01-31T00:38:25.275Z,1
2023-01-31T00:40:09.037Z,0
2023-01-31T00:41:52.660Z,1
2023-01-31T00:43:36.373Z,0
2023-01-31T00:45:20.189Z,0
2023-01-31T00:47:03.786Z,0
2023-01-31T00:48:47.486Z,0
2023-01-31T00:50:31.182Z,0
2023-01-31T00:52:14.935Z,0
2023-01-31T00:53:58.631Z,0
2023-01-31T00:55:42.290Z,0
2023-01-31T00:57:26.069Z,0
2023-01-31T00:59:09.745Z,0
2023-01-31T01:00:53.442Z,0
2023-01-31T01:02:37.138Z,1
2023-01-31T01:04:20.819Z,0
2023-01-31T01:06:04.572Z,0
2023-01-31T01:07:48.195Z,0
2023-01-31T01:09:31.979Z,1
2023-01-31T01:11:15.604Z,0
2023-01-31T01:12:59.365Z,0
2023-01-31T01:14:43.089Z,0
2023-01-31T01:16:26.708Z,0
2023-01-31T01:18:10.418Z,0
2023-01-31T01:19:54.274Z,0
2023-01-31T01:21:37.850Z,0
2023-01-31T01:23:21.497Z,0
2023-01-31T01:25:05.172Z,0
2023-01-31T01:26:48.899Z,0
2023-01-31T01:28:32.652Z,0
2023-01-31T01:30:16.392Z,0
2023-01-31T01:32:00.052Z,0
2023-01-31T01:33:43.707Z,0
2023-01-31T01:35:27.467Z,0
2023-01-31T01:37:11.156Z,0
2023-01-31T01:38:54.772Z,0
2023-01-31T01:40:38.578Z,0
2023-01-31T01:42:22.277Z,0
2023-01-31T01:44:05.922Z,0
2023-01-31T01:45:49.588Z,0
2023-01-31T01:47:33.422Z,0
2023-01-31T01:49:17.004Z,1
2023-01-31T01:51:00.712Z,0
2023-01-31T01:52:44.379Z,0
2023-01-31T01:54:28.114Z,0
2023-01-31T01:56:11.804Z,0
2023-01-31T01:57:55.573Z,0
2023-01-31T01:59:39.213Z,1
2023-01-31T02:01:22.904Z,0
2023-01-31T02:03:06.734Z,0
2023-01-31T02:04:50.383Z,0
2023-01-31T02:06:34.091Z,0
2023-01-31T02:08:17.792Z,0
2023-01-31T02:10:01.575Z,0
2023-01-31T02:11:45.145Z,0
2023-01-31T02:13:28.903Z,1
2023-01-31T02:15:12.554Z,0
2023-01-31T02:16:56.355Z,0
2023-01-31T02:18:39.941Z,0
2023-01-31T02:20:23.649Z,0
2023-01-31T02:22:07.380Z,0
2023-01-31T02:23:51.122Z,0
2023-01-31T02:25:34.730Z,0
2023-01-31T02:27:18.508Z,0
2023-01-31T02:29:02.123Z,0
2023-01-31T02:30:45.884Z,0
2023-01-31T02:32:29.589Z,0
2023-01-31T02:34:13.370Z,0
2023-01-31T02:35:57.023Z,0
2023-01-31T02:37:40.823Z,0
2023-01-31T02:39:24.479Z,0
2023-01-31T02:41:08.117Z,0
2023-01-31T02:42:51.857Z,0
2023-01-31T02:44:35.609Z,0
2023-01-31T02:46:19.285Z,1
2023-01-31T02:48:02.984Z,1
2023-01-31T02:49:46.653Z,0
2023-01-31T02:51:30.396Z,0
2023-01-31T02:53:14.138Z,0
2023-01-31T02:54:57.820Z,0
2023-01-31T02:56:41.551Z,0
2023-01-31T02:58:25.266Z,0
2023-01-31T03:00:08.901Z,1
2023-01-31T03:01:52.649Z,0
2023-01-31T03:03:36.288Z,0
2023-01-31T03:05:20.081Z,0
2023-01-31T03:07:03.789Z,0
2023-01-31T03:08:47.296Z,0
2023-01-31T03:10:31.158Z,0
2023-01-31T03:12:14.818Z,0
2023-01-31T03:13:58.395Z,0
2023-01-31T03:15:42.202Z,0
2023-01-31T03:17:25.842Z,1
2023-01-31T03:19:09.502Z,0
2023-01-31T03:20:53.287Z,0
2023-01-31T03:22:36.929Z,0
2023-01-31T03:24:20.771Z,0
2023-01-31T03:26:04.398Z,0
2023-01-31T03:27:48.003Z,0
2023-01-31T03:29:31.725Z,0
2023-01-31T03:31:15.548Z,0
2023-01-31T03:32:59.242Z,0
2023-01-31T03:34:42.811Z,0
2023-01-31T03:36:26.698Z,0
2023-01-31T03:38:10.390Z,0
2023-01-31T03:39:54.070Z,0
2023-01-31T03:41:37.693Z,0
2023-01-31T03:43:21.422Z,0
2023-01-31T03:45:05.179Z,0
2023-01-31T03:46:48.761Z,0
2023-01-31T03:48:32.557Z,0
2023-01-31T03:50:16.236Z,0
2023-01-31T03:51:59.824Z,0
2023-01-31T03:53:43.553Z,0
2023-01-31T03:55:27.346Z,0
2023-01-31T03:57:11.065Z,0
2023-01-31T03:58:54.677Z,0
2023-01-31T04:00:38.509Z,0
2023-01-31T04:02:22.230Z,0
2023-01-31T04:04:05.823Z,0
2023-01-31T04:05:49.504Z,0
2023-01-31T04:07:33.220Z,0
2023-01-31T04:09:16.977Z,1
2023-01-31T04:11:00.683Z,0
2023-01-31T04:12:44.404Z,0
2023-01-31T04:14:28.138Z,0
2023-01-31T04:16:11.767Z,0
2023-01-31T04:17:55.528Z,0
2023-01-31T04:19:39.074Z,0
2023-01-31T04:21:22.845Z,0
2023-01-31T04:23:06.646Z,0
2023-01-31T04:24:50.192Z,0
2023-01-31T04:26:34.026Z,0
2023-01-31T04:28:17.686Z,0
2023-01-31T04:30:01.441Z,0
2023-01-31T04:31:45.127Z,0
2023-01-31T04:33:28.840Z,0
2023-01-31T04:35:12.523Z,0
2023-01-31T04:36:56.165Z,0
2023-01-31T04:38:40.026Z,0
2023-01-31T04:40:23.467Z,0
2023-01-31T04:42:07.351Z,0
2023-01-31T04:43:51.149Z,0
2023-01-31T04:45:34.663Z,0
2023-01-31T04:47:18.292Z,0
2023-01-31T04:49:02.003Z,0
2023-01-31T04:50:45.755Z,0
2023-01-31T04:52:29.495Z,0
2023-01-31T04:54:13.283Z,0
2023-01-31T04:55:56.929Z,0
2023-01-31T04:57:40.577Z,0
2023-01-31T04:59:24.224Z,1
2023-01-31T05:01:08.085Z,0
2023-01-31T05:02:51.661Z,0
2023-01-31T05:04:35.356Z,0
2023-01-31T05:06:19.021Z,0
2023-01-31T05:08:02.779Z,0
2023-01-31T05:09:46.564Z,0
2023-01-31T05:11:30.318Z,0
2023-01-31T05:13:13.941Z,0
2023-01-31T05:14:57.696Z,0
2023-01-31T05:16:41.324Z,0
2023-01-31T05:18:25.078Z,5
2023-01-31T05:20:08.755Z,0
2023-01-31T05:21:52.430Z,0
2023-01-31T05:23:36.243Z,1
2023-01-31T05:25:19.861Z,0
2023-01-31T05:27:03.440Z,0
2023-01-31T05:28:47.329Z,0
2023-01-31T05:30:30.937Z,0
2023-01-31T05:32:14.701Z,0
2023-01-31T05:33:58.429Z,0
2023-01-31T05:35:41.956Z,0
2023-01-31T05:37:25.771Z,0
2023-01-31T05:39:09.377Z,0
2023-01-31T05:40:53.167Z,0
2023-01-31T05:42:36.918Z,0
2023-01-31T05:44:20.587Z,0
2023-01-31T05:46:04.158Z,0
2023-01-31T05:47:47.899Z,0
2023-01-31T05:49:31.681Z,0
2023-01-31T05:51:15.422Z,0
2023-01-31T05:52:59.140Z,0
2023-01-31T05:54:42.828Z,0
2023-01-31T05:56:26.605Z,0
2023-01-31T05:58:10.181Z,0
2023-01-31T05:59:54.020Z,0
2023-01-31T06:01:37.629Z,0
2023-01-31T06:03:21.374Z,0
2023-01-31T06:05:04.894Z,0
2023-01-31T06:06:48.711Z,0
2023-01-31T06:08:32.465Z,0
2023-01-31T06:10:15.971Z,0
2023-01-31T06:11:59.889Z,0
2023-01-31T06:13:43.510Z,0
2023-01-31T06:15:27.191Z,0
2023-01-31T06:17:10.980Z,0
2023-01-31T06:18:54.775Z,0
2023-01-31T06:20:38.221Z,0
2023-01-31T06:22:22.053Z,0
2023-01-31T06:24:05.775Z,0
2023-01-31T06:25:49.436Z,0
2023-01-31T06:27:33.197Z,0
2023-01-31T06:29:16.943Z,0
2023-01-31T06:31:00.543Z,0
2023-01-31T06:32:44.178Z,1
2023-01-31T06:34:27.809Z,1
2023-01-31T06:36:11.685Z,1
2023-01-31T06:37:55.335Z,1
2023-01-31T06:39:39.004Z,1
2023-01-31T06:41:22.685Z,1
2023-01-31T06:43:06.388Z,2
2023-01-31T06:44:50.192Z,2
2023-01-31T06:46:33.836Z,2
2023-01-31T06:48:17.547Z,3
2023-01-31T06:50:01.281Z,3
2023-01-31T06:51:45.001Z,70
2023-01-31T06:53:28.624Z,77
2023-01-31T06:55:12.390Z,85
2023-01-31T06:56:56.002Z,94
2023-01-31T06:58:39.757Z,104
2023-01-31T07:00:23.382Z,124
2023-01-31T07:02:07.122Z,176
2023-01-31T07:03:50.800Z,250
2023-01-31T07:05:34.547Z,244
2023-01-31T07:07:18.162Z,218
2023-01-31T07:09:01.852Z,189
2023-01-31T07:10:45.733Z,188
2023-01-31T07:12:29.372Z,199
2023-01-31T07:14:13.042Z,207
2023-01-31T07:15:56.822Z,216
2023-01-31T07:17:40.459Z,228
2023-01-31T07:21:07.768Z,256
2023-01-31T07:22:51.522Z,278
2023-01-31T07:24:35.312Z,306
2023-01-31T07:26:18.971Z,340
2023-01-31T07:28:02.593Z,365
2023-01-31T07:29:46.332Z,396
2023-01-31T07:31:29.993Z,469
2023-01-31T07:33:13.850Z,538
2023-01-31T07:34:57.397Z,548
2023-01-31T07:36:41.156Z,550
2023-01-31T07:38:24.993Z,553
2023-01-31T07:40:08.490Z,774
2023-01-31T07:41:52.342Z,774
2023-01-31T07:43:35.952Z,774
2023-01-31T07:45:19.668Z,774
2023-01-31T07:47:03.492Z,774
2023-01-31T07:48:47.105Z,709
2023-01-31T07:50:30.789Z,760
2023-01-31T07:52:14.584Z,774
2023-01-31T07:53:58.477Z,774
2023-01-31T07:55:41.869Z,774
2023-01-31T07:57:25.507Z,774
2023-01-31T07:59:09.198Z,774
2023-01-31T08:00:53.062Z,774
2023-01-31T08:02:36.697Z,774
2023-01-31T08:04:20.523Z,775
2023-01-31T08:06:04.100Z,773
2023-01-31T08:07:47.828Z,775
2023-01-31T08:09:31.494Z,775
2023-01-31T08:11:15.315Z,774
2023-01-31T08:12:58.859Z,775
2023-01-31T08:14:42.530Z,774
2023-01-31T08:16:26.313Z,774
2023-01-31T08:18:09.940Z,774
2023-01-31T08:19:53.647Z,775
2023-01-31T08:21:37.464Z,775
2023-01-31T08:25:04.871Z,775
2023-01-31T08:26:48.505Z,774
2023-01-31T08:28:32.189Z,774
2023-01-31T08:30:16.005Z,775
2023-01-31T08:31:59.705Z,775
2023-01-31T08:33:43.494Z,775
2023-01-31T08:35:27.061Z,775
2023-01-31T08:37:10.691Z,775
2023-01-31T08:38:54.424Z,774
2023-01-31T08:40:38.174Z,775
2023-01-31T08:42:21.886Z,774
2023-01-31T08:44:05.560Z,775
2023-01-31T08:45:49.280Z,775
2023-01-31T08:47:32.979Z,775
2023-01-31T08:49:16.566Z,775
2023-01-31T08:51:00.387Z,775
2023-01-31T08:52:44.089Z,774
2023-01-31T08:54:27.719Z,774
2023-01-31T08:56:11.369Z,773
2023-01-31T08:57:55.173Z,775
2023-01-31T08:59:38.926Z,774
2023-01-31T09:01:22.732Z,775
2023-01-31T09:03:06.194Z,773
2023-01-31T09:04:49.886Z,775
2023-01-31T09:06:33.760Z,775
2023-01-31T09:08:17.431Z,775
2023-01-31T09:10:01.134Z,774
2023-01-31T09:11:44.876Z,775
2023-01-31T09:13:28.444Z,775
2023-01-31T09:15:12.215Z,776
2023-01-31T09:16:55.977Z,775
2023-01-31T09:18:39.524Z,775
2023-01-31T09:20:23.272Z,775
2023-01-31T09:22:07.125Z,775
2023-01-31T09:23:50.736Z,775
2023-01-31T09:25:34.475Z,774
2023-01-31T09:27:18.188Z,776
2023-01-31T09:29:01.794Z,775
2023-01-31T09:30:45.410Z,775
2023-01-31T09:32:29.238Z,775
2023-01-31T09:34:12.833Z,775
2023-01-31T09:35:56.576Z,776
2023-01-31T09:39:24.059Z,775
2023-01-31T09:41:07.653Z,775
2023-01-31T09:42:51.396Z,775
2023-01-31T09:44:35.142Z,775
2023-01-31T09:46:18.760Z,776
2023-01-31T09:48:02.616Z,776
2023-01-31T09:49:46.246Z,776
2023-01-31T09:51:29.922Z,776
2023-01-31T09:53:13.521Z,776
2023-01-31T09:54:57.366Z,776
2023-01-31T09:56:41.150Z,775
2023-01-31T09:58:24.732Z,776
2023-01-31T10:00:08.500Z,776
2023-01-31T10:01:52.077Z,775
2023-01-31T10:03:35.960Z,776
2023-01-31T10:05:19.570Z,775
2023-01-31T10:07:03.282Z,773
2023-01-31T10:08:47.059Z,776
2023-01-31T10:10:30.701Z,775
2023-01-31T10:12:14.351Z,776
2023-01-31T10:13:58.158Z,775
2023-01-31T10:15:41.876Z,776
2023-01-31T10:17:25.395Z,776
2023-01-31T10:19:09.155Z,775
2023-01-31T10:20:52.956Z,776
2023-01-31T10:22:36.609Z,776
2023-01-31T10:24:20.306Z,776
2023-01-31T10:26:03.983Z,775
2023-01-31T10:27:47.652Z,776
2023-01-31T10:29:31.406Z,775
2023-01-31T10:31:15.093Z,775
2023-01-31T10:32:58.859Z,776
2023-01-31T10:34:42.462Z,776
2023-01-31T10:36:26.124Z,776
2023-01-31T10:39:53.629Z,776
2023-01-31T10:41:37.175Z,776
2023-01-31T10:43:21.066Z,776
2023-01-31T10:45:04.599Z,776
2023-01-31T10:46:48.443Z,775
2023-01-31T10:48:32.075Z,776
2023-01-31T10:50:15.715Z,774
2023-01-31T10:51:59.512Z,777
2023-01-31T10:53:43.291Z,776
2023-01-31T10:55:26.809Z,776
2023-01-31T10:57:10.678Z,776
2023-01-31T10:58:54.317Z,775
2023-01-31T11:00:38.128Z,776
2023-01-31T11:02:21.758Z,776
2023-01-31T11:04:05.302Z,776
2023-01-31T11:05:49.130Z,776
2023-01-31T11:07:32.746Z,776
2023-01-31T11:09:16.561Z,776
2023-01-31T11:11:00.199Z,776
2023-01-31T11:12:43.803Z,776
2023-01-31T11:14:27.541Z,776
2023-01-31T11:16:11.308Z,776
2023-01-31T11:17:54.971Z,775
2023-01-31T11:19:38.829Z,776
2023-01-31T11:21:22.482Z,776
2023-01-31T11:23:06.158Z,776
2023-01-31T11:24:49.888Z,776
2023-01-31T11:26:33.558Z,776
2023-01-31T11:28:17.349Z,776
2023-01-31T11:30:00.959Z,776
2023-01-31T11:31:44.533Z,776
2023-01-31T11:33:28.251Z,774
2023-01-31T11:35:12.081Z,776
2023-01-31T11:36:55.797Z,776
2023-01-31T11:38:39.480Z,776
2023-01-31T11:40:23.044Z,776
2023-01-31T11:42:06.743Z,776
2023-01-31T11:43:50.620Z,776
2023-01-31T11:45:34.330Z,776
2023-01-31T11:47:17.984Z,776
2023-01-31T11:50:45.309Z,777
2023-01-31T11:52:28.977Z,776
2023-01-31T11:54:12.805Z,776
2023-01-31T11:55:56.484Z,775
2023-01-31T11:57:40.061Z,775
2023-01-31T11:59:23.960Z,776
2023-01-31T12:01:07.485Z,775
2023-01-31T12:02:51.319Z,776
2023-01-31T12:04:35.004Z,776
2023-01-31T12:06:18.761Z,776
2023-01-31T12:08:02.271Z,776
2023-01-31T12:09:46.094Z,776
2023-01-31T12:11:29.714Z,776
2023-01-31T12:13:13.538Z,775
2023-01-31T12:14:57.210Z,776
2023-01-31T12:16:40.785Z,776
2023-01-31T12:18:24.468Z,775
2023-01-31T12:20:08.343Z,776
2023-01-31T12:21:52.035Z,775
2023-01-31T12:23:35.755Z,774
2023-01-31T12:25:19.292Z,742
2023-01-31T12:27:03.174Z,775
2023-01-31T12:28:46.924Z,775
2023-01-31T12:30:30.510Z,773
2023-01-31T12:32:14.275Z,776
2023-01-31T12:33:57.859Z,775
2023-01-31T12:35:41.523Z,775
2023-01-31T12:37:25.287Z,775
2023-01-31T12:39:09.042Z,775
2023-01-31T12:40:52.743Z,776
2023-01-31T12:42:36.566Z,775
2023-01-31T12:44:20.188Z,774
2023-01-31T12:46:03.707Z,776
2023-01-31T12:47:47.446Z,775
2023-01-31T12:49:31.256Z,775
2023-01-31T12:51:14.993Z,775
2023-01-31T12:52:58.610Z,775
2023-01-31T12:54:42.209Z,775
2023-01-31T12:56:26.064Z,775
2023-01-31T12:58:09.748Z,776
2023-01-31T12:59:53.506Z,776
2023-01-31T13:01:37.130Z,776
2023-01-31T13:03:20.874Z,776
2023-01-31T13:05:04.517Z,776
2023-01-31T13:06:48.254Z,773
2023-01-31T13:08:32.007Z,776
2023-01-31T13:10:15.532Z,775
2023-01-31T13:11:59.394Z,776
2023-01-31T13:13:42.930Z,775
2023-01-31T13:15:26.814Z,775
2023-01-31T13:17:10.447Z,703
2023-01-31T13:18:54.193Z,750
2023-01-31T13:20:37.904Z,775
2023-01-31T13:22:21.607Z,776
2023-01-31T13:24:05.320Z,775
2023-01-31T13:25:49.034Z,776
2023-01-31T13:27:32.660Z,776
2023-01-31T13:29:16.233Z,775
2023-01-31T13:30:59.998Z,776
2023-01-31T13:32:43.640Z,775
2023-01-31T13:34:27.512Z,776
2023-01-31T13:36:11.064Z,773
2023-01-31T13:37:54.921Z,776
2023-01-31T13:39:38.564Z,775
2023-01-31T13:41:22.275Z,776
2023-01-31T13:43:05.995Z,776
2023-01-31T13:44:49.707Z,775
2023-01-31T13:46:33.336Z,775
2023-01-31T13:48:16.974Z,776
2023-01-31T13:50:00.688Z,775
2023-01-31T13:51:44.539Z,775
2023-01-31T13:53:28.236Z,776
2023-01-31T13:55:11.897Z,776
2023-01-31T13:56:55.655Z,775
2023-01-31T13:58:39.388Z,775
2023-01-31T14:00:23.028Z,775
2023-01-31T14:02:06.718Z,776
2023-01-31T14:03:50.446Z,776
2023-01-31T14:05:34.223Z,773
2023-01-31T14:07:17.680Z,776
2023-01-31T14:10:45.180Z,776
2023-01-31T14:12:28.881Z,775
2023-01-31T14:14:12.634Z,775
2023-01-31T14:15:56.236Z,774
2023-01-31T14:17:39.970Z,775
2023-01-31T14:19:23.733Z,775
2023-01-31T14:21:07.365Z,776
2023-01-31T14:22:51.137Z,775
2023-01-31T14:24:34.810Z,776
2023-01-31T14:26:18.386Z,776
2023-01-31T14:28:02.250Z,776
2023-01-31T14:29:45.927Z,776
2023-01-31T14:31:29.645Z,775
2023-01-31T14:33:13.423Z,775
2023-01-31T14:34:57.031Z,773
2023-01-31T14:36:40.655Z,775
2023-01-31T14:38:24.537Z,772
2023-01-31T14:40:08.106Z,703
2023-01-31T14:43:35.455Z,612
2023-01-31T14:45:19.265Z,647
2023-01-31T14:47:02.882Z,642
2023-01-31T14:48:46.691Z,663
2023-01-31T14:50:30.215Z,698
2023-01-31T14:52:14.116Z,706
2023-01-31T14:53:57.781Z,679
2023-01-31T14:55:41.538Z,638
2023-01-31T14:57:25.395Z,635
2023-01-31T14:59:08.808Z,609
2023-01-31T15:00:52.584Z,535
2023-01-31T15:02:36.295Z,515
2023-01-31T15:04:19.951Z,547
2023-01-31T15:06:03.694Z,542
2023-01-31T15:07:47.309Z,506
2023-01-31T15:09:31.088Z,468
2023-01-31T15:11:14.638Z,431
2023-01-31T15:12:58.497Z,376
2023-01-31T15:14:42.196Z,352
2023-01-31T15:16:25.934Z,349
2023-01-31T15:18:09.489Z,334
2023-01-31T15:19:53.169Z,338
2023-01-31T15:21:36.662Z,317
2023-01-31T15:23:20.286Z,297
2023-01-31T15:25:04.024Z,291
2023-01-31T15:26:47.663Z,281
2023-01-31T15:28:31.466Z,321
2023-01-31T15:30:15.227Z,391
2023-01-31T15:31:58.787Z,350
2023-01-31T15:33:42.623Z,369
2023-01-31T15:35:26.354Z,381
2023-01-31T15:37:09.863Z,296
2023-01-31T15:38:53.714Z,282
2023-01-31T15:40:37.292Z,258
2023-01-31T15:42:21.143Z,231
2023-01-31T15:44:04.789Z,219
2023-01-31T15:45:48.531Z,262
2023-01-31T15:47:32.079Z,214
2023-01-31T15:49:15.890Z,176
2023-01-31T15:50:59.636Z,161
2023-01-31T15:52:43.359Z,159
2023-01-31T15:54:27.012Z,138
2023-01-31T15:56:10.798Z,132
2023-01-31T15:57:54.436Z,134
2023-01-31T15:59:38.194Z,114
2023-01-31T16:01:21.752Z,98
2023-01-31T16:03:05.609Z,82
2023-01-31T16:04:49.127Z,67
2023-01-31T16:06:33.063Z,57
2023-01-31T16:08:16.709Z,48
2023-01-31T16:10:00.331Z,39
2023-01-31T16:11:44.110Z,28
2023-01-31T16:13:27.712Z,19
2023-01-31T16:15:11.475Z,17
2023-01-31T16:16:55.141Z,17
2023-01-31T16:18:38.932Z,14
2023-01-31T16:20:22.547Z,12
2023-01-31T16:22:06.304Z,10
2023-01-31T16:23:49.878Z,9
2023-01-31T16:25:33.693Z,8
2023-01-31T16:27:17.366Z,7
2023-01-31T16:29:00.934Z,6
2023-01-31T16:30:44.785Z,5
2023-01-31T16:32:28.524Z,4
2023-01-31T16:34:12.206Z,2
2023-01-31T16:35:55.915Z,70
2023-01-31T16:37:39.583Z,71
2023-01-31T16:39:23.129Z,2
2023-01-31T16:41:07.024Z,3
2023-01-31T16:42:50.548Z,2
2023-01-31T16:44:34.420Z,1
2023-01-31T16:46:18.114Z,2
2023-01-31T16:48:01.843Z,1
2023-01-31T16:49:45.386Z,1
2023-01-31T16:51:29.215Z,1
2023-01-31T16:53:12.797Z,1
2023-01-31T16:54:56.466Z,1
2023-01-31T16:56:40.180Z,1
2023-01-31T16:58:24.057Z,1
2023-01-31T17:00:07.644Z,1
2023-01-31T17:01:51.450Z,774
2023-01-31T17:03:35.096Z,774
2023-01-31T17:05:18.667Z,774
2023-01-31T17:07:02.441Z,775
2023-01-31T17:08:46.282Z,774
2023-01-31T17:10:29.897Z,759
2023-01-31T17:12:13.774Z,774
2023-01-31T17:13:57.318Z,529
2023-01-31T17:15:40.886Z,660
2023-01-31T17:17:24.761Z,491
2023-01-31T17:19:08.465Z,469
2023-01-31T17:20:52.186Z,352
2023-01-31T17:22:35.836Z,418
2023-01-31T17:24:19.453Z,432
2023-01-31T17:26:03.265Z,419
2023-01-31T17:27:46.824Z,350
2023-01-31T17:29:30.660Z,267
2023-01-31T17:31:14.344Z,271
2023-01-31T17:32:58.102Z,274
2023-01-31T17:34:41.597Z,264
2023-01-31T17:36:25.458Z,256
2023-01-31T17:38:09.241Z,252
2023-01-31T17:39:52.919Z,775
2023-01-31T17:41:36.557Z,774
2023-01-31T17:43:20.264Z,773
2023-01-31T17:45:03.821Z,775
2023-01-31T17:46:47.523Z,775
2023-01-31T17:48:31.290Z,775
2023-01-31T17:50:15.038Z,773
2023-01-31T17:51:58.734Z,774
2023-01-31T17:53:42.397Z,775
2023-01-31T17:55:26.177Z,775
2023-01-31T17:57:09.931Z,775
2023-01-31T17:58:53.602Z,775
2023-01-31T18:00:37.221Z,775
2023-01-31T18:02:20.977Z,774
2023-01-31T18:04:04.704Z,774
2023-01-31T18:05:48.307Z,466
2023-01-31T18:07:32.133Z,438
2023-01-31T18:09:15.818Z,614
2023-01-31T18:10:59.524Z,643
2023-01-31T18:12:43.205Z,652
2023-01-31T18:14:26.795Z,311
2023-01-31T18:16:10.691Z,384
2023-01-31T18:17:54.367Z,713
2023-01-31T18:19:38.082Z,608
2023-01-31T18:21:21.827Z,618
2023-01-31T18:24:49.202Z,471
2023-01-31T18:26:32.896Z,568
2023-01-31T18:28:16.378Z,529
2023-01-31T18:30:00.100Z,450
2023-01-31T18:31:43.988Z,304
2023-01-31T18:33:27.669Z,565
2023-01-31T18:35:11.311Z,612
2023-01-31T18:36:55.033Z,611
2023-01-31T18:38:38.723Z,486
2023-01-31T18:40:22.450Z,446
2023-01-31T18:42:06.199Z,436
2023-01-31T18:43:49.864Z,435
2023-01-31T18:45:33.398Z,508
2023-01-31T18:47:17.106Z,483
2023-01-31T18:49:01.040Z,419
2023-01-31T18:50:44.494Z,412
2023-01-31T18:52:28.210Z,504
2023-01-31T18:54:11.958Z,661
2023-01-31T18:55:55.605Z,774
2023-01-31T18:57:39.313Z,570
2023-01-31T18:59:22.985Z,776
2023-01-31T19:01:06.780Z,774
2023-01-31T19:02:50.419Z,711
2023-01-31T19:04:34.248Z,5
2023-01-31T19:06:17.860Z,5
2023-01-31T19:08:01.514Z,4
2023-01-31T19:09:45.220Z,5
2023-01-31T19:11:29.010Z,5
2023-01-31T19:13:12.624Z,3
2023-01-31T19:14:56.374Z,4
2023-01-31T19:16:40.023Z,4
2023-01-31T19:18:23.727Z,4
2023-01-31T19:20:07.458Z,5
2023-01-31T19:21:51.135Z,5
2023-01-31T19:23:34.845Z,5
2023-01-31T19:25:18.535Z,5
2023-01-31T19:27:02.232Z,4
2023-01-31T19:28:45.949Z,5
2023-01-31T19:32:13.350Z,5
2023-01-31T19:33:57.048Z,5
2023-01-31T19:35:40.769Z,4
2023-01-31T19:37:24.595Z,5
2023-01-31T19:39:08.156Z,5
2023-01-31T19:40:51.861Z,5
2023-01-31T19:42:35.558Z,4
2023-01-31T19:44:19.262Z,5
2023-01-31T19:46:02.958Z,5
2023-01-31T19:47:46.656Z,4
2023-01-31T19:49:30.420Z,5
2023-01-31T19:51:14.074Z,4
2023-01-31T19:52:57.766Z,5
2023-01-31T19:54:41.531Z,4
2023-01-31T19:56:25.196Z,5
2023-01-31T19:58:08.908Z,6
2023-01-31T19:59:52.603Z,4
2023-01-31T20:01:36.294Z,4
2023-01-31T20:03:20.032Z,4
2023-01-31T20:05:03.750Z,3
2023-01-31T20:06:47.390Z,5
2023-01-31T20:08:31.089Z,4
2023-01-31T20:10:14.819Z,4
2023-01-31T20:11:58.554Z,4
2023-01-31T20:13:42.241Z,5
2023-01-31T20:15:26.036Z,4
2023-01-31T20:17:09.624Z,4
2023-01-31T20:18:53.325Z,4
2023-01-31T20:20:37.220Z,4
2023-01-31T20:22:20.696Z,4
2023-01-31T20:24:04.424Z,5
2023-01-31T20:25:48.119Z,5
2023-01-31T20:27:31.821Z,4
2023-01-31T20:29:15.560Z,5
2023-01-31T20:30:59.260Z,4
2023-01-31T20:32:42.916Z,4
2023-01-31T20:34:26.634Z,5
2023-01-31T20:36:10.377Z,5
2023-01-31T20:37:54.031Z,5
2023-01-31T20:39:37.775Z,4
2023-01-31T20:41:21.432Z,3
2023-01-31T20:43:05.110Z,4
2023-01-31T20:44:48.842Z,5
2023-01-31T20:46:32.608Z,5
2023-01-31T20:48:16.240Z,5
2023-01-31T20:49:59.971Z,4
2023-01-31T20:51:43.634Z,4
2023-01-31T20:53:27.356Z,4
2023-01-31T20:55:11.055Z,4
2023-01-31T20:56:54.741Z,4
2023-01-31T20:58:38.442Z,4
2023-01-31T21:00:22.152Z,4
2023-01-31T21:02:05.858Z,5
2023-01-31T21:03:49.563Z,5
2023-01-31T21:05:33.278Z,4
2023-01-31T21:07:16.965Z,4
2023-01-31T21:09:00.665Z,4
2023-01-31T21:10:44.377Z,5
2023-01-31T21:12:28.050Z,5
2023-01-31T21:14:11.768Z,4
2023-01-31T21:15:55.477Z,4
2023-01-31T21:17:39.176Z,5
2023-01-31T21:19:22.851Z,5
2023-01-31T21:21:06.588Z,4
2023-01-31T21:22:50.376Z,5
2023-01-31T21:24:33.970Z,5
2023-01-31T21:26:17.670Z,4
2023-01-31T21:28:01.404Z,4
2023-01-31T21:29:45.088Z,5
2023-01-31T21:31:28.780Z,5
2023-01-31T21:33:12.508Z,4
2023-01-31T21:34:56.224Z,5
2023-01-31T21:36:39.897Z,5
2023-01-31T21:38:23.591Z,4
2023-01-31T21:40:07.308Z,4
2023-01-31T21:41:51.131Z,4
2023-01-31T21:43:34.801Z,4
2023-01-31T21:45:18.406Z,4
2023-01-31T21:47:02.113Z,4
2023-01-31T21:48:45.793Z,5
2023-01-31T21:50:29.514Z,4
2023-01-31T21:52:13.217Z,5
2023-01-31T21:53:56.905Z,4
2023-01-31T21:55:40.598Z,4
2023-01-31T21:57:24.313Z,4
2023-01-31T21:59:08.021Z,4
2023-01-31T22:00:51.726Z,5
2023-01-31T22:02:35.435Z,4
2023-01-31T22:04:19.125Z,4
2023-01-31T22:06:02.812Z,4
2023-01-31T22:07:46.562Z,4
2023-01-31T22:09:30.261Z,5
2023-01-31T22:11:13.918Z,4
2023-01-31T22:12:57.691Z,4
2023-01-31T22:14:41.349Z,4
2023-01-31T22:16:25.040Z,5
2023-01-31T22:18:08.749Z,4
2023-01-31T22:19:52.432Z,5
2023-01-31T22:21:36.159Z,5
2023-01-31T22:23:19.861Z,5
2023-01-31T22:25:03.542Z,4
2023-01-31T22:26:47.255Z,5
2023-01-31T22:28:31.013Z,4
2023-01-31T22:30:14.723Z,5
2023-01-31T22:31:58.359Z,5
2023-01-31T22:33:42.080Z,4
2023-01-31T22:35:25.761Z,4
2023-01-31T22:37:09.461Z,4
2023-01-31T22:38:53.232Z,4
2023-01-31T22:40:36.865Z,4
2023-01-31T22:42:20.560Z,4
2023-01-31T22:44:04.260Z,5
2023-01-31T22:45:47.980Z,5
2023-01-31T22:47:31.793Z,4
2023-01-31T22:49:15.377Z,5
2023-01-31T22:50:59.087Z,4
2023-01-31T22:52:42.814Z,4
2023-01-31T22:54:26.459Z,4
2023-01-31T22:56:10.178Z,4
2023-01-31T22:57:53.885Z,4
2023-01-31T22:59:37.571Z,4
2023-01-31T23:01:21.262Z,4
2023-01-31T23:03:04.973Z,5
2023-01-31T23:04:48.683Z,94
2023-01-31T23:06:32.431Z,93
2023-01-31T23:08:16.106Z,91
2023-01-31T23:09:59.772Z,91
2023-01-31T23:11:43.488Z,90
2023-01-31T23:13:27.187Z,2
2023-01-31T23:15:10.893Z,2
2023-01-31T23:16:54.652Z,2
2023-01-31T23:18:38.292Z,2
2023-01-31T23:20:21.979Z,2
2023-01-31T23:22:05.700Z,2
2023-01-31T23:23:49.403Z,1
2023-01-31T23:25:33.160Z,1
2023-01-31T23:27:16.825Z,2
2023-01-31T23:29:00.520Z,2
2023-01-31T23:30:44.201Z,2
2023-01-31T23:32:27.926Z,2
2023-01-31T23:34:11.666Z,1
2023-01-31T23:35:55.390Z,1
2023-01-31T23:37:39.060Z,1
2023-01-31T23:39:22.783Z,1
2023-01-31T23:41:06.423Z,1
2023-01-31T23:42:50.131Z,1
2023-01-31T23:44:33.828Z,1
2023-01-31T23:46:17.520Z,0
2023-01-31T23:48:01.226Z,1
2023-01-31T23:49:44.924Z,0
2023-01-31T23:51:28.636Z,1
2023-01-31T23:53:12.333Z,0
2023-01-31T23:54:56.038Z,1
2023-01-31T23:56:39.733Z,0
2023-01-31T23:58:23.443Z,0
